sensor_id;sensor_type;location;lat;lon;timestamp;pressure;altitude;pressure_sealevel;temperature;humidity
15884;BME280;8040;50.254;10.960;2023-02-15T00:00:43;99745.47;;;2.20;83.37
15884;BME280;8040;50.254;10.960;2023-02-15T00:03:09;99755.53;;;2.38;83.46
15884;BME280;8040;50.254;10.960;2023-02-15T00:05:35;99734.16;;;2.18;83.80
15884;BME280;8040;50.254;10.960;2023-02-15T00:08:01;99729.66;;;2.06;83.84
15884;BME280;8040;50.254;10.960;2023-02-15T00:10:26;99713.44;;;1.94;84.31
15884;BME280;8040;50.254;10.960;2023-02-15T00:12:51;99742.19;;;2.12;85.03
15884;BME280;8040;50.254;10.960;2023-02-15T00:15:17;99738.53;;;1.93;85.64
15884;BME280;8040;50.254;10.960;2023-02-15T00:17:42;99736.03;;;2.11;85.69
15884;BME280;8040;50.254;10.960;2023-02-15T00:20:09;99735.38;;;2.35;85.15
15884;BME280;8040;50.254;10.960;2023-02-15T00:22:34;99737.78;;;2.50;84.39
15884;BME280;8040;50.254;10.960;2023-02-15T00:25:00;99723.31;;;2.57;84.17
15884;BME280;8040;50.254;10.960;2023-02-15T00:27:25;99728.59;;;2.77;83.63
15884;BME280;8040;50.254;10.960;2023-02-15T00:29:50;99716.66;;;2.73;83.38
15884;BME280;8040;50.254;10.960;2023-02-15T00:32:16;99725.25;;;2.88;83.30
15884;BME280;8040;50.254;10.960;2023-02-15T00:34:41;99711.28;;;2.79;82.55
15884;BME280;8040;50.254;10.960;2023-02-15T00:37:06;99718.78;;;2.95;82.50
15884;BME280;8040;50.254;10.960;2023-02-15T00:39:32;99703.75;;;2.94;81.88
15884;BME280;8040;50.254;10.960;2023-02-15T00:41:57;99713.53;;;3.13;81.18
15884;BME280;8040;50.254;10.960;2023-02-15T00:44:23;99698.16;;;3.02;80.62
15884;BME280;8040;50.254;10.960;2023-02-15T00:46:48;99709.03;;;3.07;80.10
15884;BME280;8040;50.254;10.960;2023-02-15T00:49:13;99712.84;;;2.93;80.69
15884;BME280;8040;50.254;10.960;2023-02-15T00:51:39;99716.75;;;2.97;80.56
15884;BME280;8040;50.254;10.960;2023-02-15T00:54:05;99698.41;;;2.94;80.67
15884;BME280;8040;50.254;10.960;2023-02-15T00:56:30;99696.19;;;2.41;81.57
15884;BME280;8040;50.254;10.960;2023-02-15T00:58:56;99707.09;;;2.46;82.10
15884;BME280;8040;50.254;10.960;2023-02-15T01:01:22;99699.22;;;2.57;81.93
15884;BME280;8040;50.254;10.960;2023-02-15T01:03:48;99699.00;;;2.65;81.97
15884;BME280;8040;50.254;10.960;2023-02-15T01:06:16;99701.78;;;2.83;82.00
15884;BME280;8040;50.254;10.960;2023-02-15T01:08:41;99697.69;;;2.74;81.73
15884;BME280;8040;50.254;10.960;2023-02-15T01:11:12;99712.41;;;2.96;81.49
15884;BME280;8040;50.254;10.960;2023-02-15T01:13:38;99681.75;;;2.48;81.33
15884;BME280;8040;50.254;10.960;2023-02-15T01:16:04;99708.94;;;2.45;81.77
15884;BME280;8040;50.254;10.960;2023-02-15T01:18:30;99705.53;;;2.25;82.74
15884;BME280;8040;50.254;10.960;2023-02-15T01:20:55;99701.94;;;2.51;82.51
15884;BME280;8040;50.254;10.960;2023-02-15T01:23:21;99701.81;;;2.70;82.08
15884;BME280;8040;50.254;10.960;2023-02-15T01:25:48;99714.16;;;2.78;81.63
15884;BME280;8040;50.254;10.960;2023-02-15T01:28:13;99710.91;;;2.69;81.95
15884;BME280;8040;50.254;10.960;2023-02-15T01:30:39;99701.16;;;2.81;81.79
15884;BME280;8040;50.254;10.960;2023-02-15T01:33:05;99699.72;;;2.79;81.73
15884;BME280;8040;50.254;10.960;2023-02-15T01:35:30;99694.09;;;2.56;81.96
15884;BME280;8040;50.254;10.960;2023-02-15T01:37:56;99698.34;;;2.63;81.70
15884;BME280;8040;50.254;10.960;2023-02-15T01:40:22;99689.53;;;2.56;81.96
15884;BME280;8040;50.254;10.960;2023-02-15T01:42:52;99685.22;;;2.55;81.96
15884;BME280;8040;50.254;10.960;2023-02-15T01:47:58;99671.25;;;2.84;81.93
15884;BME280;8040;50.254;10.960;2023-02-15T01:50:33;99673.88;;;2.91;82.18
15884;BME280;8040;50.254;10.960;2023-02-15T01:56:24;99659.25;;;2.93;80.65
15884;BME280;8040;50.254;10.960;2023-02-15T01:58:32;99662.19;;;2.48;80.91
15884;BME280;8040;50.254;10.960;2023-02-15T02:01:00;99654.06;;;2.17;82.63
15884;BME280;8040;50.254;10.960;2023-02-15T02:03:56;99649.44;;;2.43;82.46
15884;BME280;8040;50.254;10.960;2023-02-15T02:06:26;99654.31;;;2.53;82.91
15884;BME280;8040;50.254;10.960;2023-02-15T02:08:53;99642.56;;;2.60;83.32
15884;BME280;8040;50.254;10.960;2023-02-15T02:11:19;99654.56;;;2.82;82.76
15884;BME280;8040;50.254;10.960;2023-02-15T02:13:45;99647.94;;;2.85;82.58
15884;BME280;8040;50.254;10.960;2023-02-15T02:16:17;99643.03;;;2.82;81.40
15884;BME280;8040;50.254;10.960;2023-02-15T02:35:23;99629.72;;;2.69;81.80
15884;BME280;8040;50.254;10.960;2023-02-15T02:38:11;99629.84;;;2.80;81.85
15884;BME280;8040;50.254;10.960;2023-02-15T02:41:12;99633.31;;;2.87;81.52
15884;BME280;8040;50.254;10.960;2023-02-15T02:43:50;99619.34;;;2.79;81.17
15884;BME280;8040;50.254;10.960;2023-02-15T02:48:46;99621.13;;;2.60;81.30
15884;BME280;8040;50.254;10.960;2023-02-15T02:51:13;99628.88;;;2.75;81.62
15884;BME280;8040;50.254;10.960;2023-02-15T02:53:41;99622.75;;;2.61;81.54
15884;BME280;8040;50.254;10.960;2023-02-15T02:59:00;99632.31;;;2.44;82.36
15884;BME280;8040;50.254;10.960;2023-02-15T03:01:58;99641.63;;;2.79;81.82
15884;BME280;8040;50.254;10.960;2023-02-15T03:04:29;99628.03;;;2.74;81.26
15884;BME280;8040;50.254;10.960;2023-02-15T03:07:18;99632.78;;;2.41;82.02
15884;BME280;8040;50.254;10.960;2023-02-15T03:09:50;99638.59;;;2.25;82.87
15884;BME280;8040;50.254;10.960;2023-02-15T03:12:20;99642.13;;;2.13;83.68
15884;BME280;8040;50.254;10.960;2023-02-15T03:14:51;99631.44;;;2.13;84.08
15884;BME280;8040;50.254;10.960;2023-02-15T03:17:20;99633.25;;;2.19;84.29
15884;BME280;8040;50.254;10.960;2023-02-15T03:19:47;99634.94;;;2.13;84.74
15884;BME280;8040;50.254;10.960;2023-02-15T03:22:18;99631.59;;;2.24;84.55
15884;BME280;8040;50.254;10.960;2023-02-15T03:27:26;99627.88;;;2.25;84.21
15884;BME280;8040;50.254;10.960;2023-02-15T03:29:55;99637.34;;;2.28;84.10
15884;BME280;8040;50.254;10.960;2023-02-15T03:32:25;99631.00;;;2.22;83.85
15884;BME280;8040;50.254;10.960;2023-02-15T03:34:52;99635.78;;;2.14;84.36
15884;BME280;8040;50.254;10.960;2023-02-15T03:40:18;99626.78;;;1.95;85.31
15884;BME280;8040;50.254;10.960;2023-02-15T03:43:18;99620.56;;;2.01;84.84
15884;BME280;8040;50.254;10.960;2023-02-15T03:45:51;99637.16;;;2.23;84.10
15884;BME280;8040;50.254;10.960;2023-02-15T03:48:30;99623.38;;;2.19;83.66
15884;BME280;8040;50.254;10.960;2023-02-15T03:51:01;99632.88;;;2.15;83.43
15884;BME280;8040;50.254;10.960;2023-02-15T03:53:55;99623.16;;;1.57;83.98
15884;BME280;8040;50.254;10.960;2023-02-15T03:56:21;99630.59;;;1.29;85.82
15884;BME280;8040;50.254;10.960;2023-02-15T03:58:46;99621.97;;;1.21;87.37
15884;BME280;8040;50.254;10.960;2023-02-15T04:04:44;99613.94;;;1.40;87.01
15884;BME280;8040;50.254;10.960;2023-02-15T04:07:10;99621.53;;;1.30;87.19
15884;BME280;8040;50.254;10.960;2023-02-15T04:09:36;99620.72;;;1.49;87.52
15884;BME280;8040;50.254;10.960;2023-02-15T04:12:20;99609.56;;;1.72;86.69
15884;BME280;8040;50.254;10.960;2023-02-15T04:14:45;99615.50;;;1.80;85.96
15884;BME280;8040;50.254;10.960;2023-02-15T04:17:32;99603.97;;;1.80;85.70
15884;BME280;8040;50.254;10.960;2023-02-15T04:19:57;99604.97;;;1.98;85.35
15884;BME280;8040;50.254;10.960;2023-02-15T04:22:43;99616.41;;;2.12;84.83
15884;BME280;8040;50.254;10.960;2023-02-15T04:25:27;99606.78;;;2.04;83.97
15884;BME280;8040;50.254;10.960;2023-02-15T04:28:23;99608.31;;;1.68;83.65
15884;BME280;8040;50.254;10.960;2023-02-15T04:30:48;99611.16;;;1.79;84.73
15884;BME280;8040;50.254;10.960;2023-02-15T04:33:13;99606.72;;;1.47;85.32
15884;BME280;8040;50.254;10.960;2023-02-15T04:35:39;99596.66;;;1.36;85.88
15884;BME280;8040;50.254;10.960;2023-02-15T04:38:06;99601.41;;;1.34;85.77
15884;BME280;8040;50.254;10.960;2023-02-15T04:40:31;99597.06;;;1.40;86.64
15884;BME280;8040;50.254;10.960;2023-02-15T04:42:56;99597.28;;;1.32;86.50
15884;BME280;8040;50.254;10.960;2023-02-15T04:45:22;99606.53;;;1.42;86.73
15884;BME280;8040;50.254;10.960;2023-02-15T04:47:47;99594.81;;;1.30;87.10
15884;BME280;8040;50.254;10.960;2023-02-15T04:50:12;99593.19;;;1.16;87.29
15884;BME280;8040;50.254;10.960;2023-02-15T04:52:38;99603.47;;;1.32;87.45
15884;BME280;8040;50.254;10.960;2023-02-15T04:55:04;99605.50;;;1.37;87.19
15884;BME280;8040;50.254;10.960;2023-02-15T04:57:29;99601.16;;;1.42;86.87
15884;BME280;8040;50.254;10.960;2023-02-15T04:59:55;99551.47;;;1.15;86.59
15884;BME280;8040;50.254;10.960;2023-02-15T05:02:20;99558.84;;;1.39;86.90
15884;BME280;8040;50.254;10.960;2023-02-15T05:04:46;99567.63;;;1.66;86.81
15884;BME280;8040;50.254;10.960;2023-02-15T05:07:12;99548.06;;;1.65;86.19
15884;BME280;8040;50.254;10.960;2023-02-15T05:09:37;99562.16;;;1.85;85.14
15884;BME280;8040;50.254;10.960;2023-02-15T05:12:06;99561.53;;;1.96;84.86
15884;BME280;8040;50.254;10.960;2023-02-15T05:14:31;99564.56;;;2.06;84.41
15884;BME280;8040;50.254;10.960;2023-02-15T05:16:56;99566.78;;;2.16;83.60
15884;BME280;8040;50.254;10.960;2023-02-15T05:19:31;99534.88;;;2.14;83.10
15884;BME280;8040;50.254;10.960;2023-02-15T05:22:02;99577.41;;;2.35;83.22
15884;BME280;8040;50.254;10.960;2023-02-15T05:24:27;99597.50;;;2.44;82.52
15884;BME280;8040;50.254;10.960;2023-02-15T05:27:12;99540.59;;;2.24;82.28
15884;BME280;8040;50.254;10.960;2023-02-15T05:29:58;99586.13;;;2.55;82.06
15884;BME280;8040;50.254;10.960;2023-02-15T05:32:24;99571.34;;;2.46;81.96
15884;BME280;8040;50.254;10.960;2023-02-15T05:34:49;99542.75;;;2.40;81.70
15884;BME280;8040;50.254;10.960;2023-02-15T05:37:15;99560.97;;;2.56;81.19
15884;BME280;8040;50.254;10.960;2023-02-15T05:39:41;99566.44;;;2.43;80.36
15884;BME280;8040;50.254;10.960;2023-02-15T05:42:09;99548.72;;;2.42;80.79
15884;BME280;8040;50.254;10.960;2023-02-15T05:44:34;99565.09;;;2.59;80.45
15884;BME280;8040;50.254;10.960;2023-02-15T05:47:03;99541.09;;;2.46;80.15
15884;BME280;8040;50.254;10.960;2023-02-15T05:49:29;99534.50;;;2.42;80.03
15884;BME280;8040;50.254;10.960;2023-02-15T05:51:56;99579.03;;;2.67;79.17
15884;BME280;8040;50.254;10.960;2023-02-15T05:54:21;99579.81;;;2.74;79.18
15884;BME280;8040;50.254;10.960;2023-02-15T05:56:46;99570.63;;;2.64;78.73
15884;BME280;8040;50.254;10.960;2023-02-15T05:59:12;99580.25;;;2.71;78.53
15884;BME280;8040;50.254;10.960;2023-02-15T06:01:39;99582.94;;;2.71;78.69
15884;BME280;8040;50.254;10.960;2023-02-15T06:04:05;99597.09;;;2.78;78.34
15884;BME280;8040;50.254;10.960;2023-02-15T06:06:30;99593.38;;;2.79;78.17
15884;BME280;8040;50.254;10.960;2023-02-15T06:08:56;99587.84;;;2.74;77.58
15884;BME280;8040;50.254;10.960;2023-02-15T06:11:21;99597.44;;;2.57;77.20
15884;BME280;8040;50.254;10.960;2023-02-15T06:14:09;99577.38;;;1.91;78.81
15884;BME280;8040;50.254;10.960;2023-02-15T06:16:34;99590.22;;;1.70;80.63
15884;BME280;8040;50.254;10.960;2023-02-15T06:19:00;99580.16;;;1.65;81.36
15884;BME280;8040;50.254;10.960;2023-02-15T06:21:27;99569.22;;;1.73;80.94
15884;BME280;8040;50.254;10.960;2023-02-15T06:23:52;99583.38;;;1.87;81.11
15884;BME280;8040;50.254;10.960;2023-02-15T06:26:18;99570.41;;;1.90;81.33
15884;BME280;8040;50.254;10.960;2023-02-15T06:28:44;99576.13;;;2.00;81.31
15884;BME280;8040;50.254;10.960;2023-02-15T06:31:11;99551.84;;;1.95;81.41
15884;BME280;8040;50.254;10.960;2023-02-15T06:36:11;99573.56;;;2.18;80.17
15884;BME280;8040;50.254;10.960;2023-02-15T06:38:38;99579.25;;;2.28;79.56
15884;BME280;8040;50.254;10.960;2023-02-15T06:41:03;99571.69;;;2.19;79.24
15884;BME280;8040;50.254;10.960;2023-02-15T06:43:29;99585.44;;;2.29;79.16
15884;BME280;8040;50.254;10.960;2023-02-15T06:45:54;99593.19;;;2.43;78.95
15884;BME280;8040;50.254;10.960;2023-02-15T06:48:24;99590.91;;;2.47;78.51
15884;BME280;8040;50.254;10.960;2023-02-15T06:50:49;99585.53;;;2.53;78.45
15884;BME280;8040;50.254;10.960;2023-02-15T06:53:15;99583.09;;;2.45;78.02
15884;BME280;8040;50.254;10.960;2023-02-15T06:55:40;99589.94;;;2.41;77.12
15884;BME280;8040;50.254;10.960;2023-02-15T06:58:05;99584.47;;;2.17;77.07
15884;BME280;8040;50.254;10.960;2023-02-15T07:00:31;99572.53;;;1.75;77.61
15884;BME280;8040;50.254;10.960;2023-02-15T07:02:57;99582.91;;;1.39;79.81
15884;BME280;8040;50.254;10.960;2023-02-15T07:05:25;99584.97;;;1.18;81.03
15884;BME280;8040;50.254;10.960;2023-02-15T07:07:56;99589.91;;;1.27;81.76
15884;BME280;8040;50.254;10.960;2023-02-15T07:10:21;99591.75;;;1.14;82.89
15884;BME280;8040;50.254;10.960;2023-02-15T07:12:46;99585.75;;;1.38;82.57
15884;BME280;8040;50.254;10.960;2023-02-15T07:15:15;99579.34;;;1.52;82.54
15884;BME280;8040;50.254;10.960;2023-02-15T07:17:41;99582.88;;;1.52;81.84
15884;BME280;8040;50.254;10.960;2023-02-15T07:20:10;99592.47;;;1.73;81.56
15884;BME280;8040;50.254;10.960;2023-02-15T07:22:39;99567.56;;;1.72;81.82
15884;BME280;8040;50.254;10.960;2023-02-15T07:25:13;99553.59;;;1.77;81.53
15884;BME280;8040;50.254;10.960;2023-02-15T07:27:39;99563.34;;;2.02;80.53
15884;BME280;8040;50.254;10.960;2023-02-15T07:30:07;99582.81;;;2.22;79.79
15884;BME280;8040;50.254;10.960;2023-02-15T07:32:33;99573.09;;;2.28;79.01
15884;BME280;8040;50.254;10.960;2023-02-15T07:34:59;99584.19;;;2.31;78.69
15884;BME280;8040;50.254;10.960;2023-02-15T07:37:26;99572.66;;;2.37;78.81
15884;BME280;8040;50.254;10.960;2023-02-15T07:39:52;99594.34;;;2.60;78.01
15884;BME280;8040;50.254;10.960;2023-02-15T07:42:17;99584.59;;;2.66;77.38
15884;BME280;8040;50.254;10.960;2023-02-15T07:44:45;99598.38;;;2.69;77.06
15884;BME280;8040;50.254;10.960;2023-02-15T07:47:10;99586.22;;;2.73;77.03
15884;BME280;8040;50.254;10.960;2023-02-15T07:49:37;99585.53;;;2.84;75.73
15884;BME280;8040;50.254;10.960;2023-02-15T07:55:24;99589.66;;;2.80;75.91
15884;BME280;8040;50.254;10.960;2023-02-15T07:57:50;99589.25;;;2.83;75.90
15884;BME280;8040;50.254;10.960;2023-02-15T08:00:18;99575.22;;;2.81;75.38
15884;BME280;8040;50.254;10.960;2023-02-15T08:02:50;99594.16;;;2.86;74.89
15884;BME280;8040;50.254;10.960;2023-02-15T08:05:36;99591.75;;;2.78;75.01
15884;BME280;8040;50.254;10.960;2023-02-15T08:08:01;99585.00;;;2.69;75.41
15884;BME280;8040;50.254;10.960;2023-02-15T08:10:26;99580.94;;;2.60;75.31
15884;BME280;8040;50.254;10.960;2023-02-15T08:13:12;99591.41;;;2.68;75.12
15884;BME280;8040;50.254;10.960;2023-02-15T08:15:37;99605.19;;;2.34;74.34
15884;BME280;8040;50.254;10.960;2023-02-15T08:18:03;99590.44;;;2.19;75.22
15884;BME280;8040;50.254;10.960;2023-02-15T08:20:28;99599.59;;;1.98;75.91
15884;BME280;8040;50.254;10.960;2023-02-15T08:22:55;99601.97;;;2.26;76.25
15884;BME280;8040;50.254;10.960;2023-02-15T08:25:21;99584.94;;;2.14;76.00
15884;BME280;8040;50.254;10.960;2023-02-15T08:27:46;99591.28;;;2.19;76.06
15884;BME280;8040;50.254;10.960;2023-02-15T08:30:12;99581.34;;;2.26;75.68
15884;BME280;8040;50.254;10.960;2023-02-15T08:32:39;99597.88;;;2.17;75.42
15884;BME280;8040;50.254;10.960;2023-02-15T08:35:05;99596.63;;;2.19;75.99
15884;BME280;8040;50.254;10.960;2023-02-15T08:37:30;99594.09;;;2.31;76.43
15884;BME280;8040;50.254;10.960;2023-02-15T08:39:56;99600.16;;;2.51;76.46
15884;BME280;8040;50.254;10.960;2023-02-15T08:42:21;99597.88;;;2.54;76.77
15884;BME280;8040;50.254;10.960;2023-02-15T08:44:46;99605.38;;;2.70;76.38
15884;BME280;8040;50.254;10.960;2023-02-15T08:47:12;99573.97;;;2.59;75.76
15884;BME280;8040;50.254;10.960;2023-02-15T08:49:37;99592.53;;;2.85;75.22
15884;BME280;8040;50.254;10.960;2023-02-15T08:52:03;99602.75;;;2.95;74.64
15884;BME280;8040;50.254;10.960;2023-02-15T08:54:28;99601.75;;;2.89;74.68
15884;BME280;8040;50.254;10.960;2023-02-15T08:56:54;99600.47;;;2.98;74.49
15884;BME280;8040;50.254;10.960;2023-02-15T09:04:30;99592.59;;;3.03;73.33
15884;BME280;8040;50.254;10.960;2023-02-15T09:06:56;99583.03;;;3.07;73.46
15884;BME280;8040;50.254;10.960;2023-02-15T09:09:22;99591.00;;;3.20;72.83
15884;BME280;8040;50.254;10.960;2023-02-15T09:11:49;99586.28;;;3.16;72.69
15884;BME280;8040;50.254;10.960;2023-02-15T09:14:17;99582.16;;;3.13;72.61
15884;BME280;8040;50.254;10.960;2023-02-15T09:16:46;99589.63;;;3.11;72.12
15884;BME280;8040;50.254;10.960;2023-02-15T09:19:14;99582.25;;;3.07;72.05
15884;BME280;8040;50.254;10.960;2023-02-15T09:21:40;99579.19;;;3.03;71.35
15884;BME280;8040;50.254;10.960;2023-02-15T09:24:08;99592.03;;;3.19;71.72
15884;BME280;8040;50.254;10.960;2023-02-15T09:29:10;99597.00;;;3.16;71.40
15884;BME280;8040;50.254;10.960;2023-02-15T09:31:44;99595.91;;;3.23;71.18
15884;BME280;8040;50.254;10.960;2023-02-15T09:34:12;99592.91;;;3.13;71.29
15884;BME280;8040;50.254;10.960;2023-02-15T09:36:38;99608.66;;;3.28;70.55
15884;BME280;8040;50.254;10.960;2023-02-15T09:39:09;99598.00;;;3.21;70.21
15884;BME280;8040;50.254;10.960;2023-02-15T09:50:02;99610.69;;;3.32;70.92
15884;BME280;8040;50.254;10.960;2023-02-15T09:52:43;99590.16;;;3.20;70.15
15884;BME280;8040;50.254;10.960;2023-02-15T09:55:32;99609.03;;;3.31;70.25
15884;BME280;8040;50.254;10.960;2023-02-15T10:01:21;99606.56;;;3.05;71.69
15884;BME280;8040;50.254;10.960;2023-02-15T10:20:38;99585.53;;;3.33;71.97
15884;BME280;8040;50.254;10.960;2023-02-15T10:28:50;99590.03;;;3.75;69.54
15884;BME280;8040;50.254;10.960;2023-02-15T10:31:23;99560.81;;;3.67;69.61
15884;BME280;8040;50.254;10.960;2023-02-15T10:41:37;99562.44;;;3.68;68.78
15884;BME280;8040;50.254;10.960;2023-02-15T10:44:17;99570.44;;;3.75;69.24
15884;BME280;8040;50.254;10.960;2023-02-15T10:52:25;99553.94;;;4.07;68.88
15884;BME280;8040;50.254;10.960;2023-02-15T10:57:45;99556.88;;;4.17;68.74
15884;BME280;8040;50.254;10.960;2023-02-15T11:08:16;99538.22;;;3.57;68.17
15884;BME280;8040;50.254;10.960;2023-02-15T11:10:54;99543.16;;;3.17;69.56
15884;BME280;8040;50.254;10.960;2023-02-15T11:13:22;99538.50;;;3.31;70.31
15884;BME280;8040;50.254;10.960;2023-02-15T11:15:56;99541.22;;;3.49;70.82
15884;BME280;8040;50.254;10.960;2023-02-15T11:18:42;99539.81;;;3.64;71.18
15884;BME280;8040;50.254;10.960;2023-02-15T11:21:22;99539.97;;;3.69;71.10
15884;BME280;8040;50.254;10.960;2023-02-15T11:23:48;99532.94;;;3.68;70.62
15884;BME280;8040;50.254;10.960;2023-02-15T11:26:33;99549.84;;;3.87;70.44
15884;BME280;8040;50.254;10.960;2023-02-15T11:31:51;99517.50;;;3.82;69.17
15884;BME280;8040;50.254;10.960;2023-02-15T11:34:23;99516.25;;;3.66;69.51
15884;BME280;8040;50.254;10.960;2023-02-15T11:36:54;99517.66;;;3.51;69.70
15884;BME280;8040;50.254;10.960;2023-02-15T11:39:21;99512.66;;;3.36;69.79
15884;BME280;8040;50.254;10.960;2023-02-15T11:41:55;99507.06;;;3.20;70.52
15884;BME280;8040;50.254;10.960;2023-02-15T11:44:26;99513.25;;;3.20;70.87
15884;BME280;8040;50.254;10.960;2023-02-15T11:46:53;99517.81;;;3.38;71.65
15884;BME280;8040;50.254;10.960;2023-02-15T11:49:32;99521.09;;;3.58;70.73
15884;BME280;8040;50.254;10.960;2023-02-15T11:52:00;99507.44;;;3.59;70.79
15884;BME280;8040;50.254;10.960;2023-02-15T11:54:32;99520.53;;;3.85;70.26
15884;BME280;8040;50.254;10.960;2023-02-15T11:57:03;99523.00;;;3.87;69.53
15884;BME280;8040;50.254;10.960;2023-02-15T11:59:35;99512.47;;;4.03;68.46
15884;BME280;8040;50.254;10.960;2023-02-15T12:02:02;99513.72;;;3.71;67.67
15884;BME280;8040;50.254;10.960;2023-02-15T12:04:35;99504.63;;;3.36;68.78
15884;BME280;8040;50.254;10.960;2023-02-15T12:14:54;99500.09;;;4.02;69.96
15884;BME280;8040;50.254;10.960;2023-02-15T12:17:23;99502.09;;;4.07;69.13
15884;BME280;8040;50.254;10.960;2023-02-15T12:19:50;99479.47;;;4.14;68.64
15884;BME280;8040;50.254;10.960;2023-02-15T12:22:37;99491.28;;;4.13;67.87
15884;BME280;8040;50.254;10.960;2023-02-15T12:25:25;99485.91;;;4.13;67.60
15884;BME280;8040;50.254;10.960;2023-02-15T12:27:51;99479.25;;;4.16;67.78
15884;BME280;8040;50.254;10.960;2023-02-15T12:30:22;99489.59;;;4.30;67.24
15884;BME280;8040;50.254;10.960;2023-02-15T12:32:58;99494.63;;;4.38;67.49
15884;BME280;8040;50.254;10.960;2023-02-15T12:35:35;99481.31;;;4.43;67.32
15884;BME280;8040;50.254;10.960;2023-02-15T12:38:21;99468.13;;;4.42;66.83
15884;BME280;8040;50.254;10.960;2023-02-15T12:40:58;99456.78;;;4.40;65.78
15884;BME280;8040;50.254;10.960;2023-02-15T12:43:27;99462.31;;;4.45;66.24
15884;BME280;8040;50.254;10.960;2023-02-15T12:46:22;99465.34;;;4.60;65.85
15884;BME280;8040;50.254;10.960;2023-02-15T12:49:06;99444.06;;;4.47;66.08
15884;BME280;8040;50.254;10.960;2023-02-15T12:51:43;99446.41;;;4.43;66.27
15884;BME280;8040;50.254;10.960;2023-02-15T12:54:37;99459.28;;;4.53;65.85
15884;BME280;8040;50.254;10.960;2023-02-15T12:57:27;99448.47;;;4.41;65.90
15884;BME280;8040;50.254;10.960;2023-02-15T12:59:58;99446.00;;;4.28;66.11
15884;BME280;8040;50.254;10.960;2023-02-15T13:02:40;99466.00;;;4.44;66.61
15884;BME280;8040;50.254;10.960;2023-02-15T13:05:21;99456.22;;;4.49;65.52
15884;BME280;8040;50.254;10.960;2023-02-15T13:07:51;99460.06;;;4.53;65.99
15884;BME280;8040;50.254;10.960;2023-02-15T13:10:52;99468.03;;;4.48;66.30
15884;BME280;8040;50.254;10.960;2023-02-15T13:13:20;99455.03;;;4.45;66.41
15884;BME280;8040;50.254;10.960;2023-02-15T13:15:52;99468.84;;;4.49;66.84
15884;BME280;8040;50.254;10.960;2023-02-15T13:18:38;99466.84;;;4.44;66.07
15884;BME280;8040;50.254;10.960;2023-02-15T13:21:12;99453.47;;;4.26;66.35
15884;BME280;8040;50.254;10.960;2023-02-15T13:23:56;99450.81;;;4.26;66.79
15884;BME280;8040;50.254;10.960;2023-02-15T13:26:26;99458.06;;;4.37;66.72
15884;BME280;8040;50.254;10.960;2023-02-15T13:29:27;99453.28;;;4.39;66.61
15884;BME280;8040;50.254;10.960;2023-02-15T13:31:54;99462.31;;;4.56;66.79
15884;BME280;8040;50.254;10.960;2023-02-15T13:34:28;99445.81;;;4.41;66.73
15884;BME280;8040;50.254;10.960;2023-02-15T13:42:30;99462.25;;;4.33;67.37
15884;BME280;8040;50.254;10.960;2023-02-15T13:50:43;99443.31;;;4.28;67.10
15884;BME280;8040;50.254;10.960;2023-02-15T13:53:46;99443.66;;;4.20;67.67
15884;BME280;8040;50.254;10.960;2023-02-15T14:04:31;99436.72;;;4.01;68.89
15884;BME280;8040;50.254;10.960;2023-02-15T14:07:15;99450.22;;;4.24;68.56
15884;BME280;8040;50.254;10.960;2023-02-15T14:12:48;99441.47;;;4.40;68.31
15884;BME280;8040;50.254;10.960;2023-02-15T14:15:29;99414.50;;;4.35;67.92
15884;BME280;8040;50.254;10.960;2023-02-15T14:24:05;99430.16;;;4.38;67.67
15884;BME280;8040;50.254;10.960;2023-02-15T14:26:23;99422.19;;;4.20;68.19
15884;BME280;8040;50.254;10.960;2023-02-15T14:31:42;99414.00;;;4.15;68.21
15884;BME280;8040;50.254;10.960;2023-02-15T14:36:50;99419.84;;;4.12;69.21
15884;BME280;8040;50.254;10.960;2023-02-15T14:39:26;99402.81;;;4.18;69.31
15884;BME280;8040;50.254;10.960;2023-02-15T14:42:31;99421.88;;;4.40;69.08
15884;BME280;8040;50.254;10.960;2023-02-15T14:45:20;99400.97;;;4.30;68.50
15884;BME280;8040;50.254;10.960;2023-02-15T14:47:59;99417.78;;;4.37;68.52
15884;BME280;8040;50.254;10.960;2023-02-15T14:58:32;99388.47;;;4.47;68.50
15884;BME280;8040;50.254;10.960;2023-02-15T15:01:08;99402.16;;;4.57;68.04
15884;BME280;8040;50.254;10.960;2023-02-15T15:03:36;99394.56;;;4.54;68.18
15884;BME280;8040;50.254;10.960;2023-02-15T15:06:03;99389.75;;;4.56;68.26
15884;BME280;8040;50.254;10.960;2023-02-15T15:08:39;99375.91;;;4.07;68.13
15884;BME280;8040;50.254;10.960;2023-02-15T15:13:58;99390.47;;;3.58;70.51
15884;BME280;8040;50.254;10.960;2023-02-15T15:18:57;99395.88;;;3.04;73.01
15884;BME280;8040;50.254;10.960;2023-02-15T15:32:45;99395.41;;;3.43;73.60
15884;BME280;8040;50.254;10.960;2023-02-15T15:45:53;99394.34;;;4.03;72.40
15884;BME280;8040;50.254;10.960;2023-02-15T15:48:31;99395.75;;;4.06;72.15
15884;BME280;8040;50.254;10.960;2023-02-15T15:53:52;99347.88;;;3.50;72.00
15884;BME280;8040;50.254;10.960;2023-02-15T15:56:25;99383.72;;;3.67;72.74
15884;BME280;8040;50.254;10.960;2023-02-15T15:59:07;99375.75;;;3.79;72.70
15884;BME280;8040;50.254;10.960;2023-02-15T16:01:41;99378.00;;;3.93;73.06
15884;BME280;8040;50.254;10.960;2023-02-15T16:04:25;99385.84;;;4.06;72.50
15884;BME280;8040;50.254;10.960;2023-02-15T16:06:51;99378.59;;;4.07;72.14
15884;BME280;8040;50.254;10.960;2023-02-15T16:11:50;99388.47;;;4.24;71.90
15884;BME280;8040;50.254;10.960;2023-02-15T16:14:26;99372.66;;;4.16;71.99
15884;BME280;8040;50.254;10.960;2023-02-15T16:16:59;99378.56;;;3.95;71.46
15884;BME280;8040;50.254;10.960;2023-02-15T16:19:37;99368.53;;;3.91;71.56
15884;BME280;8040;50.254;10.960;2023-02-15T16:22:03;99370.31;;;3.97;71.81
15884;BME280;8040;50.254;10.960;2023-02-15T16:27:43;99359.53;;;3.85;71.94
15884;BME280;8040;50.254;10.960;2023-02-15T16:30:19;99389.81;;;4.04;72.77
15884;BME280;8040;50.254;10.960;2023-02-15T16:32:45;99376.88;;;4.12;73.05
15884;BME280;8040;50.254;10.960;2023-02-15T16:35:19;99384.81;;;4.19;72.58
15884;BME280;8040;50.254;10.960;2023-02-15T16:37:44;99368.91;;;4.17;72.25
15884;BME280;8040;50.254;10.960;2023-02-15T16:43:15;99373.03;;;4.31;71.89
15884;BME280;8040;50.254;10.960;2023-02-15T16:45:40;99391.06;;;4.42;71.64
15884;BME280;8040;50.254;10.960;2023-02-15T16:48:11;99391.63;;;4.44;71.28